createdAt,value
2022-09-10T00:00:11.501Z,100511.11
2022-09-10T00:03:03.209Z,100506.73
2022-09-10T00:05:37.921Z,100503.17
2022-09-10T00:08:06.870Z,100498.08
2022-09-10T00:10:39.524Z,100493.27
2022-09-10T00:13:09.498Z,100492.53
2022-09-10T00:15:40.439Z,100491.06
2022-09-10T00:18:09.925Z,100489.90
2022-09-10T00:20:43.443Z,100481.92
2022-09-10T00:23:11.960Z,100479.14
2022-09-10T00:25:40.650Z,100478.71
2022-09-10T00:28:09.540Z,100476.55
2022-09-10T00:30:41.297Z,100469.79
2022-09-10T00:33:10.473Z,100466.19
2022-09-10T00:35:39.874Z,100464.20
2022-09-10T00:38:09.304Z,100463.63
2022-09-10T00:40:39.029Z,100461.85
2022-09-10T00:43:13.486Z,100463.74
2022-09-10T00:45:43.751Z,100470.55
2022-09-10T00:48:25.114Z,100470.95
2022-09-10T00:50:54.969Z,100474.04
2022-09-10T00:53:28.107Z,100475.73
2022-09-10T00:56:00.440Z,100472.44
2022-09-10T00:58:30.200Z,100471.55
2022-09-10T01:01:02.352Z,100470.78
2022-09-10T01:03:32.217Z,100469.88
2022-09-10T01:06:02.956Z,100469.63
2022-09-10T01:08:31.736Z,100463.39
2022-09-10T01:11:11.750Z,100457.95
2022-09-10T01:13:58.192Z,100452.98
2022-09-10T01:16:34.638Z,100450.55
2022-09-10T01:19:20.348Z,100444.16
2022-09-10T01:22:05.153Z,100446.40
2022-09-10T01:24:52.186Z,100445.10
2022-09-10T01:27:30.832Z,100446.02
2022-09-10T01:30:05.474Z,100442.96
2022-09-10T01:32:46.430Z,100441.59
2022-09-10T01:35:17.834Z,100441.35
2022-09-10T01:37:51.636Z,100435.04
2022-09-10T01:40:29.078Z,100434.91
2022-09-10T01:43:04.359Z,100431.91
2022-09-10T01:45:41.261Z,100431.21
2022-09-10T01:48:27.426Z,100422.45
2022-09-10T01:51:08.388Z,100423.04
2022-09-10T01:53:51.693Z,100419.73
2022-09-10T01:56:35.050Z,100418.98
2022-09-10T01:59:17.837Z,100419.56
2022-09-10T02:01:52.580Z,100418.63
2022-09-10T02:04:24.456Z,100419.55
2022-09-10T02:06:53.113Z,100419.66
2022-09-10T02:09:22.144Z,100416.30
2022-09-10T02:11:54.541Z,100417.93
2022-09-10T02:14:35.362Z,100418.86
2022-09-10T02:17:25.778Z,100414.64
2022-09-10T02:19:55.560Z,100409.10
2022-09-10T02:22:24.872Z,100411.02
2022-09-10T02:24:53.618Z,100408.33
2022-09-10T02:27:23.084Z,100407.59
2022-09-10T02:29:51.534Z,100405.41
2022-09-10T02:32:22.792Z,100400.37
2022-09-10T02:34:53.066Z,100399.23
2022-09-10T02:37:21.524Z,100395.51
2022-09-10T02:39:50.151Z,100395.42
2022-09-10T02:42:18.510Z,100393.92
2022-09-10T02:44:49.213Z,100392.59
2022-09-10T02:47:18.935Z,100392.69
2022-09-10T02:49:49.550Z,100392.61
2022-09-10T02:52:17.832Z,100387.30
2022-09-10T02:54:48.577Z,100380.48
2022-09-10T02:57:17.816Z,100380.06
2022-09-10T02:59:46.683Z,100377.55
2022-09-10T03:02:15.497Z,100381.70
2022-09-10T03:04:43.808Z,100382.15
2022-09-10T03:07:16.506Z,100380.48
2022-09-10T03:09:45.739Z,100383.21
2022-09-10T03:12:15.318Z,100382.75
2022-09-10T03:14:43.821Z,100380.49
2022-09-10T03:17:12.378Z,100383.22
2022-09-10T03:19:41.519Z,100381.94
2022-09-10T03:22:10.878Z,100378.82
2022-09-10T03:24:39.190Z,100381.45
2022-09-10T03:27:08.044Z,100385.00
2022-09-10T03:29:37.036Z,100390.19
2022-09-10T03:32:05.863Z,100388.86
2022-09-10T03:34:35.747Z,100390.08
2022-09-10T03:37:05.368Z,100386.06
2022-09-10T03:39:36.118Z,100392.35
2022-09-10T03:42:10.511Z,100390.95
2022-09-10T03:44:39.203Z,100391.33
2022-09-10T03:47:11.811Z,100390.27
2022-09-10T03:49:40.405Z,100390.83
2022-09-10T03:52:12.121Z,100394.45
2022-09-10T03:54:41.060Z,100395.45
2022-09-10T03:57:09.492Z,100395.35
2022-09-10T03:59:40.547Z,100400.56
2022-09-10T04:02:11.759Z,100400.23
2022-09-10T04:04:40.469Z,100398.36
2022-09-10T04:07:11.621Z,100392.86
2022-09-10T04:09:43.675Z,100392.67
2022-09-10T04:12:12.467Z,100395.26
2022-09-10T04:14:44.851Z,100397.61
2022-09-10T04:17:14.455Z,100393.81
2022-09-10T04:19:43.371Z,100386.89
2022-09-10T04:22:12.435Z,100377.31
2022-09-10T04:24:42.148Z,100370.88
2022-09-10T04:27:11.045Z,100368.81
2022-09-10T04:29:39.983Z,100366.98
2022-09-10T04:32:08.617Z,100367.10
2022-09-10T04:34:37.519Z,100363.45
2022-09-10T04:37:05.921Z,100364.75
2022-09-10T04:39:35.434Z,100360.04
2022-09-10T04:42:07.827Z,100350.66
2022-09-10T04:44:36.693Z,100343.63
2022-09-10T04:47:06.585Z,100345.20
2022-09-10T04:49:35.217Z,100345.36
2022-09-10T04:52:04.536Z,100347.50
2022-09-10T04:54:33.247Z,100347.34
2022-09-10T04:57:01.625Z,100346.88
2022-09-10T04:59:31.047Z,100352.97
2022-09-10T05:01:59.440Z,100348.29
2022-09-10T05:04:27.949Z,100337.61
2022-09-10T05:06:58.106Z,100324.54
2022-09-10T05:09:30.589Z,100317.33
2022-09-10T05:12:01.025Z,100321.98
2022-09-10T05:14:30.011Z,100329.59
2022-09-10T05:16:59.491Z,100326.33
2022-09-10T05:19:30.387Z,100328.36
2022-09-10T05:22:07.592Z,100331.02
2022-09-10T05:24:39.331Z,100333.55
2022-09-10T05:27:10.860Z,100338.88
2022-09-10T05:29:39.799Z,100346.89
2022-09-10T05:32:09.237Z,100352.48
2022-09-10T05:34:41.146Z,100350.42
2022-09-10T05:37:11.541Z,100342.39
2022-09-10T05:39:40.489Z,100336.61
2022-09-10T05:42:09.291Z,100332.63
2022-09-10T05:44:39.851Z,100330.21
2022-09-10T05:47:08.479Z,100332.80
2022-09-10T05:49:36.958Z,100326.95
2022-09-10T05:52:08.957Z,100323.82
2022-09-10T05:54:37.572Z,100319.59
2022-09-10T05:57:06.978Z,100318.75
2022-09-10T05:59:35.972Z,100316.50
2022-09-10T06:02:05.675Z,100319.20
2022-09-10T06:04:34.769Z,100319.80
2022-09-10T06:07:04.173Z,100318.89
2022-09-10T06:09:33.997Z,100317.88
2022-09-10T06:12:08.206Z,100313.31
2022-09-10T06:14:37.608Z,100318.70
2022-09-10T06:17:08.175Z,100319.08
2022-09-10T06:19:39.715Z,100321.50
2022-09-10T06:22:10.660Z,100312.34
2022-09-10T06:24:41.600Z,100307.60
2022-09-10T06:27:10.375Z,100306.50
2022-09-10T06:29:41.145Z,100311.08
2022-09-10T06:32:10.743Z,100307.79
2022-09-10T06:34:39.287Z,100302.60
2022-09-10T06:37:08.803Z,100294.73
2022-09-10T06:39:39.230Z,100291.79
2022-09-10T06:42:08.314Z,100287.36
2022-09-10T06:44:55.543Z,100290.02
2022-09-10T06:48:32.451Z,100292.91
2022-09-10T06:50:22.404Z,100291.39
2022-09-10T06:52:52.677Z,100293.38
2022-09-10T06:55:22.385Z,100291.81
2022-09-10T06:57:51.600Z,100289.81
2022-09-10T07:00:21.709Z,100295.59
2022-09-10T07:02:53.320Z,100297.51
2022-09-10T07:05:22.598Z,100295.95
2022-09-10T07:07:51.950Z,100295.77
2022-09-10T07:10:20.710Z,100292.38
2022-09-10T07:12:49.619Z,100291.76
2022-09-10T07:15:20.785Z,100299.31
2022-09-10T07:17:49.499Z,100307.38
2022-09-10T07:20:18.615Z,100313.97
2022-09-10T07:22:51.313Z,100318.61
2022-09-10T07:25:21.220Z,100320.19
2022-09-10T07:28:03.948Z,100326.48
2022-09-10T07:30:35.297Z,100331.21
2022-09-10T07:33:04.107Z,100331.59
2022-09-10T07:35:35.978Z,100328.55
2022-09-10T07:38:04.716Z,100325.60
2022-09-10T07:40:35.573Z,100320.92
2022-09-10T07:43:03.857Z,100321.20
2022-09-10T07:45:32.406Z,100318.93
2022-09-10T07:48:03.905Z,100324.82
2022-09-10T07:50:36.436Z,100331.08
2022-09-10T07:53:06.385Z,100329.20
2022-09-10T07:55:35.819Z,100329.13
2022-09-10T07:58:04.452Z,100331.65
2022-09-10T08:00:34.114Z,100332.71
2022-09-10T08:03:04.122Z,100331.48
2022-09-10T08:05:32.520Z,100330.03
2022-09-10T08:08:02.680Z,100331.33
2022-09-10T08:10:35.522Z,100328.58
2022-09-10T08:13:04.698Z,100332.00
2022-09-10T08:15:47.146Z,100327.70
2022-09-10T08:18:29.206Z,100326.85
2022-09-10T08:20:58.543Z,100328.06
2022-09-10T08:23:29.585Z,100326.52
2022-09-10T08:25:58.480Z,100327.26
2022-09-10T08:28:27.270Z,100327.55
2022-09-10T08:31:01.693Z,100325.92
2022-09-10T08:33:32.305Z,100328.20
2022-09-10T08:36:02.495Z,100329.83
2022-09-10T08:38:32.722Z,100324.87
2022-09-10T08:41:08.284Z,100321.58
2022-09-10T08:43:44.702Z,100320.38
2022-09-10T08:46:21.952Z,100329.61
2022-09-10T08:49:07.285Z,100327.63
2022-09-10T08:51:42.556Z,100327.06
2022-09-10T08:54:15.757Z,100327.60
2022-09-10T08:56:49.151Z,100326.31
2022-09-10T08:59:24.903Z,100324.23
2022-09-10T09:01:58.726Z,100325.14
2022-09-10T09:04:40.969Z,100326.40
2022-09-10T09:07:14.847Z,100327.33
2022-09-10T09:09:44.396Z,100327.04
2022-09-10T09:12:32.905Z,100328.05
2022-09-10T09:15:32.622Z,100331.10
2022-09-10T09:18:19.775Z,100334.60
2022-09-10T09:20:51.219Z,100339.00
2022-09-10T09:23:23.015Z,100340.62
2022-09-10T09:25:56.310Z,100339.92
2022-09-10T09:28:33.738Z,100334.77
2022-09-10T09:31:09.609Z,100329.38
2022-09-10T09:33:40.812Z,100322.35
2022-09-10T09:36:15.658Z,100321.89
2022-09-10T09:38:48.297Z,100322.40
2022-09-10T09:41:25.871Z,100323.00
2022-09-10T09:44:01.932Z,100315.34
2022-09-10T09:46:33.928Z,100311.61
2022-09-10T09:49:06.643Z,100305.98
2022-09-10T09:51:36.173Z,100309.45
2022-09-10T09:57:14.142Z,100309.09
2022-09-10T09:59:44.380Z,100302.91
2022-09-10T10:02:17.314Z,100288.11
2022-09-10T10:05:03.276Z,100285.36
2022-09-10T10:07:33.999Z,100290.88
2022-09-10T10:10:07.031Z,100298.77
2022-09-10T10:12:50.873Z,100303.53
2022-09-10T10:15:36.040Z,100297.91
2022-09-10T10:18:28.947Z,100293.48
2022-09-10T10:21:14.505Z,100288.09
2022-09-10T10:23:43.728Z,100291.44
2022-09-10T10:26:31.682Z,100283.32
2022-09-10T10:29:06.739Z,100281.10
2022-09-10T10:31:41.748Z,100273.64
2022-09-10T10:34:30.744Z,100265.65
2022-09-10T10:37:07.699Z,100259.30
2022-09-10T10:39:55.465Z,100259.06
2022-09-10T10:42:31.321Z,100252.48
2022-09-10T10:45:28.600Z,100253.08
2022-09-10T10:48:11.287Z,100258.98
2022-09-10T10:50:53.128Z,100258.04
2022-09-10T10:53:42.660Z,100264.30
2022-09-10T10:56:17.572Z,100262.52
2022-09-10T10:59:11.374Z,100267.85
2022-09-10T11:01:47.417Z,100262.45
2022-09-10T11:04:26.497Z,100255.45
2022-09-10T11:07:04.121Z,100244.83
2022-09-10T11:09:38.537Z,100238.47
2022-09-10T11:12:12.205Z,100235.83
2022-09-10T11:14:48.345Z,100241.59
2022-09-10T11:17:21.232Z,100254.73
2022-09-10T11:20:27.238Z,100254.44
2022-09-10T11:22:55.538Z,100253.71
2022-09-10T11:25:28.593Z,100248.88
2022-09-10T11:28:07.417Z,100245.80
2022-09-10T11:30:38.823Z,100242.14
2022-09-10T11:33:15.550Z,100243.67
2022-09-10T11:35:49.684Z,100240.39
2022-09-10T11:38:24.837Z,100235.14
2022-09-10T11:41:07.588Z,100237.15
2022-09-10T11:43:43.595Z,100233.30
2022-09-10T11:46:18.447Z,100233.63
2022-09-10T11:49:03.796Z,100232.21
2022-09-10T11:51:36.443Z,100226.88
2022-09-10T11:54:12.764Z,100225.66
2022-09-10T11:57:04.931Z,100220.35
2022-09-10T11:59:52.701Z,100218.94
2022-09-10T12:02:58.106Z,100213.45
2022-09-10T12:05:37.759Z,100212.00
2022-09-10T12:08:19.058Z,100208.79
2022-09-10T12:10:59.283Z,100208.24
2022-09-10T12:13:28.501Z,100207.97
2022-09-10T12:16:03.997Z,100206.69
2022-09-10T12:18:44.495Z,100208.00
2022-09-10T12:21:26.022Z,100209.94
2022-09-10T12:23:56.104Z,100203.66
2022-09-10T12:26:25.665Z,100201.81
2022-09-10T12:29:01.525Z,100197.14
2022-09-10T12:32:11.861Z,100194.19
2022-09-10T12:34:41.331Z,100193.15
2022-09-10T12:37:27.369Z,100191.88
2022-09-10T12:40:32.215Z,100191.02
2022-09-10T12:43:38.703Z,100190.48
2022-09-10T12:46:19.139Z,100187.64
2022-09-10T12:49:10.217Z,100183.04
2022-09-10T12:51:56.209Z,100183.39
2022-09-10T12:54:54.356Z,100182.38
2022-09-10T12:57:34.166Z,100179.81
2022-09-10T13:00:20.262Z,100180.30
2022-09-10T13:02:52.971Z,100176.66
2022-09-10T13:05:28.993Z,100176.21
2022-09-10T13:08:15.610Z,100172.78
2022-09-10T13:10:49.316Z,100170.65
2022-09-10T13:13:34.673Z,100168.73
2022-09-10T13:16:05.223Z,100168.12
2022-09-10T13:18:35.307Z,100170.11
2022-09-10T13:21:51.532Z,100170.52
2022-09-10T13:25:03.081Z,100167.98
2022-09-10T13:27:39.088Z,100165.33
2022-09-10T13:30:19.625Z,100161.17
2022-09-10T13:32:52.970Z,100158.85
2022-09-10T13:36:05.366Z,100151.81
2022-09-10T13:39:02.286Z,100146.75
2022-09-10T13:42:02.714Z,100150.60
2022-09-10T13:45:00.036Z,100145.59
2022-09-10T13:47:36.329Z,100150.48
2022-09-10T13:50:12.767Z,100146.38
2022-09-10T13:52:46.493Z,100149.81
2022-09-10T13:55:20.708Z,100150.11
2022-09-10T13:57:52.345Z,100150.70
2022-09-10T14:00:24.483Z,100150.77
2022-09-10T14:02:55.594Z,100148.41
2022-09-10T14:05:33.841Z,100146.23
2022-09-10T14:08:07.819Z,100146.98
2022-09-10T14:10:56.758Z,100145.11
2022-09-10T14:13:32.172Z,100144.27
2022-09-10T14:16:04.505Z,100145.42
2022-09-10T14:18:42.830Z,100145.78
2022-09-10T14:21:16.652Z,100145.98
2022-09-10T14:23:47.483Z,100144.55
2022-09-10T14:26:22.920Z,100144.65
2022-09-10T14:29:01.261Z,100144.42
2022-09-10T14:31:36.237Z,100143.63
2022-09-10T14:34:35.759Z,100140.77
2022-09-10T14:37:20.541Z,100141.34
2022-09-10T14:39:52.740Z,100139.12
2022-09-10T14:42:26.685Z,100138.77
2022-09-10T14:44:55.669Z,100135.98
2022-09-10T14:47:29.759Z,100134.61
2022-09-10T14:50:25.681Z,100134.21
2022-09-10T14:53:00.372Z,100134.74
2022-09-10T14:55:32.335Z,100138.39
2022-09-10T14:58:01.297Z,100141.51
2022-09-10T15:00:30.748Z,100143.27
2022-09-10T15:03:00.149Z,100145.07
2022-09-10T15:05:29.813Z,100143.45
2022-09-10T15:07:58.431Z,100142.29
2022-09-10T15:10:27.749Z,100141.50
2022-09-10T15:12:57.052Z,100142.11
2022-09-10T15:15:29.321Z,100137.55
2022-09-10T15:17:57.989Z,100140.20
2022-09-10T15:20:28.056Z,100144.45
2022-09-10T15:22:56.908Z,100140.11
2022-09-10T15:25:38.770Z,100141.08
2022-09-10T15:28:07.609Z,100139.80
2022-09-10T15:30:41.281Z,100138.05
2022-09-10T15:33:14.039Z,100135.58
2022-09-10T15:35:42.744Z,100135.98
2022-09-10T15:38:13.357Z,100135.06
2022-09-10T15:40:41.997Z,100134.54
2022-09-10T15:43:11.895Z,100138.96
2022-09-10T15:45:40.645Z,100133.00
2022-09-10T15:48:12.304Z,100131.60
2022-09-10T15:50:42.902Z,100129.73
2022-09-10T15:53:12.074Z,100129.80
2022-09-10T15:55:40.747Z,100127.23
2022-09-10T15:58:10.263Z,100127.30
2022-09-10T16:00:41.412Z,100125.38
2022-09-10T16:03:13.498Z,100128.48
2022-09-10T16:05:41.868Z,100127.17
2022-09-10T16:08:11.316Z,100124.69
2022-09-10T16:10:40.548Z,100126.03
2022-09-10T16:13:09.728Z,100126.80
2022-09-10T16:15:41.472Z,100122.91
2022-09-10T16:18:12.416Z,100122.94
2022-09-10T16:20:40.936Z,100120.73
2022-09-10T16:23:12.197Z,100116.69
2022-09-10T16:25:50.895Z,100114.94
2022-09-10T16:28:19.414Z,100113.10
2022-09-10T16:30:48.042Z,100108.11
2022-09-10T16:33:16.669Z,100105.61
2022-09-10T16:35:47.299Z,100107.29
2022-09-10T16:38:15.810Z,100103.17
2022-09-10T16:40:45.404Z,100101.46
2022-09-10T16:43:13.854Z,100098.85
2022-09-10T16:45:50.855Z,100097.11
2022-09-10T16:48:22.401Z,100095.53
2022-09-10T16:51:03.857Z,100091.71
2022-09-10T16:53:33.194Z,100096.69
2022-09-10T16:56:04.671Z,100093.33
2022-09-10T16:58:39.366Z,100091.80
2022-09-10T17:01:15.280Z,100095.89
2022-09-10T17:03:49.503Z,100096.06
2022-09-10T17:06:20.843Z,100095.29
2022-09-10T17:08:49.508Z,100092.23
2022-09-10T17:11:25.717Z,100089.64
2022-09-10T17:13:56.354Z,100093.09
2022-09-10T17:16:37.154Z,100093.36
2022-09-10T17:19:10.342Z,100094.70
2022-09-10T17:21:41.085Z,100093.96
2022-09-10T17:24:11.916Z,100094.83
2022-09-10T17:26:41.432Z,100093.21
2022-09-10T17:29:14.041Z,100094.65
2022-09-10T17:31:43.601Z,100097.28
2022-09-10T17:34:15.650Z,100094.06
2022-09-10T17:36:46.490Z,100092.45
2022-09-10T17:39:15.675Z,100092.08
2022-09-10T17:41:44.858Z,100092.05
2022-09-10T17:44:14.394Z,100089.42
2022-09-10T17:46:43.145Z,100085.91
2022-09-10T17:49:14.524Z,100085.57
2022-09-10T17:51:43.739Z,100085.33
2022-09-10T17:54:12.870Z,100084.72
2022-09-10T17:56:42.799Z,100085.73
2022-09-10T17:59:13.596Z,100084.87
2022-09-10T18:01:43.179Z,100088.32
2022-09-10T18:04:12.495Z,100083.56
2022-09-10T18:06:41.464Z,100085.03
2022-09-10T18:09:11.186Z,100081.40
2022-09-10T18:11:41.107Z,100077.54
2022-09-10T18:14:21.368Z,100082.36
2022-09-10T18:16:51.130Z,100080.72
2022-09-10T18:19:20.085Z,100081.20
2022-09-10T18:21:50.493Z,100077.59
2022-09-10T18:24:21.942Z,100080.96
2022-09-10T18:26:53.210Z,100083.23
2022-09-10T18:29:23.436Z,100086.37
2022-09-10T18:31:55.274Z,100088.21
2022-09-10T18:34:27.557Z,100087.27
2022-09-10T18:36:58.474Z,100088.52
2022-09-10T18:39:28.435Z,100089.60
2022-09-10T18:42:00.217Z,100090.41
2022-09-10T18:44:30.861Z,100095.63
2022-09-10T18:46:59.854Z,100090.41
2022-09-10T18:49:28.644Z,100091.16
2022-09-10T18:51:57.383Z,100095.57
2022-09-10T18:54:28.247Z,100092.83
2022-09-10T18:56:57.731Z,100089.21
2022-09-10T18:59:27.662Z,100086.41
2022-09-10T19:01:56.221Z,100086.64
2022-09-10T19:04:28.030Z,100084.23
2022-09-10T19:06:57.441Z,100082.70
2022-09-10T19:09:28.523Z,100079.96
2022-09-10T19:11:58.794Z,100079.04
2022-09-10T19:14:29.962Z,100078.06
2022-09-10T19:17:00.621Z,100076.66
2022-09-10T19:19:31.209Z,100075.13
2022-09-10T19:22:02.168Z,100074.70
2022-09-10T19:24:53.485Z,100074.46
2022-09-10T19:27:24.370Z,100073.59
2022-09-10T19:29:56.199Z,100071.67
2022-09-10T19:32:24.533Z,100068.00
2022-09-10T19:34:55.533Z,100065.73
2022-09-10T19:37:23.974Z,100062.59
2022-09-10T19:39:52.805Z,100060.01
2022-09-10T19:42:23.771Z,100058.46
2022-09-10T19:44:52.586Z,100058.73
2022-09-10T19:47:29.632Z,100057.30
2022-09-10T19:49:58.595Z,100054.00
2022-09-10T19:52:26.974Z,100054.09
2022-09-10T19:54:56.298Z,100055.11
2022-09-10T19:57:24.931Z,100053.30
2022-09-10T19:59:53.911Z,100050.41
2022-09-10T20:02:22.253Z,100050.80
2022-09-10T20:04:51.196Z,100048.84
2022-09-10T20:07:21.105Z,100048.65
2022-09-10T20:09:49.534Z,100047.29
2022-09-10T20:12:18.066Z,100043.33
2022-09-10T20:14:46.479Z,100041.36
2022-09-10T20:17:15.509Z,100041.81
2022-09-10T20:19:43.937Z,100035.79
2022-09-10T20:22:12.264Z,100037.22
2022-09-10T20:24:40.686Z,100034.51
2022-09-10T20:27:10.824Z,100031.00
2022-09-10T20:29:39.616Z,100032.13
2022-09-10T20:32:07.973Z,100029.58
2022-09-10T20:34:36.705Z,100027.25
2022-09-10T20:37:05.271Z,100023.52
2022-09-10T20:39:34.202Z,100027.39
2022-09-10T20:42:06.063Z,100025.93
2022-09-10T20:44:34.508Z,100025.10
2022-09-10T20:47:03.270Z,100028.17
2022-09-10T20:49:31.765Z,100022.94
2022-09-10T20:52:00.026Z,100025.17
2022-09-10T20:54:28.562Z,100021.44
2022-09-10T20:56:57.017Z,100017.55
2022-09-10T20:59:27.736Z,100021.36
2022-09-10T21:01:56.579Z,100021.93
2022-09-10T21:04:25.815Z,100020.49
2022-09-10T21:06:54.922Z,100018.76
2022-09-10T21:09:23.181Z,100019.08
2022-09-10T21:11:51.621Z,100014.39
2022-09-10T21:14:19.945Z,100015.35
2022-09-10T21:16:48.335Z,100014.48
2022-09-10T21:19:21.203Z,100007.03
2022-09-10T21:21:49.615Z,100007.02
2022-09-10T21:24:21.823Z,100007.09
2022-09-10T21:26:53.115Z,100005.64
2022-09-10T21:29:22.511Z,99999.89
2022-09-10T21:31:52.697Z,100000.23
2022-09-10T21:34:21.033Z,100000.75
2022-09-10T21:36:50.811Z,99997.15
2022-09-10T21:39:19.155Z,99999.56
2022-09-10T21:41:49.558Z,99999.85
2022-09-10T21:44:21.385Z,100001.71
2022-09-10T21:46:50.748Z,100000.98
2022-09-10T21:49:39.756Z,100005.68
2022-09-10T21:52:09.147Z,100001.06
2022-09-10T21:54:37.640Z,100004.56
2022-09-10T21:57:10.423Z,100002.63
2022-09-10T21:59:38.703Z,100000.17
2022-09-10T22:02:08.165Z,99999.35
2022-09-10T22:04:42.373Z,99998.96
2022-09-10T22:07:11.383Z,99999.16
2022-09-10T22:09:39.757Z,99994.50
2022-09-10T22:12:08.679Z,99995.70
2022-09-10T22:14:38.555Z,99994.64
2022-09-10T22:17:06.791Z,99996.58
2022-09-10T22:19:35.281Z,99994.39
2022-09-10T22:22:03.735Z,99995.23
2022-09-10T22:24:32.062Z,99997.23
2022-09-10T22:27:00.630Z,99996.46
2022-09-10T22:29:29.109Z,99991.77
2022-09-10T22:31:57.482Z,99994.10
2022-09-10T22:34:26.993Z,99990.84
2022-09-10T22:36:55.349Z,99992.71
2022-09-10T22:39:23.849Z,99987.50
2022-09-10T22:41:52.543Z,99989.94
2022-09-10T22:44:22.526Z,99984.19
2022-09-10T22:46:50.952Z,99980.09
2022-09-10T22:49:21.334Z,99977.77
2022-09-10T22:51:49.720Z,99977.52
2022-09-10T22:54:18.457Z,99974.08
2022-09-10T22:56:46.782Z,99978.37
2022-09-10T22:59:16.183Z,99976.73
2022-09-10T23:01:46.915Z,99974.81
2022-09-10T23:04:16.029Z,99974.02
2022-09-10T23:06:44.293Z,99970.77
2022-09-10T23:09:14.828Z,99966.94
2022-09-10T23:11:44.599Z,99970.04
2022-09-10T23:14:15.377Z,99969.61
2022-09-10T23:16:47.741Z,99964.44
2022-09-10T23:19:19.614Z,99963.52
2022-09-10T23:21:50.498Z,99960.52
2022-09-10T23:24:21.356Z,99960.27
2022-09-10T23:26:50.103Z,99959.41
2022-09-10T23:29:20.083Z,99958.43
2022-09-10T23:31:49.385Z,99953.50
2022-09-10T23:34:19.738Z,99951.80
2022-09-10T23:36:48.908Z,99946.55
2022-09-10T23:39:19.545Z,99943.17
2022-09-10T23:41:48.428Z,99941.23
2022-09-10T23:44:17.087Z,99945.55
2022-09-10T23:46:46.202Z,99944.16
2022-09-10T23:49:15.496Z,99942.39
2022-09-10T23:51:44.211Z,99949.02
2022-09-10T23:54:12.890Z,99946.54
2022-09-10T23:56:41.736Z,99944.27
2022-09-10T23:59:11.381Z,99941.49
